Observations for CULDROSE NAVY, United Kingdom (EGDR)

EGDR 241950Z 29011G22KT 9999 FEW005 SCT007 BKN012 09/08 Q1012 RERA REDZ GRN BECMG 9999 NSW FEW020 SCT040 BLU
EGDR 241850Z 24014G26KT 0400 RADZ SCT000 BKN001 OVC003 11/11 Q1011 RED BECMG 8000 HZ FEW002 SCT008 BKN020 GRN   
EGDR 241750Z 23016G26KT 1000 -RADZ FEW000 BKN001 OVC003 11/11 Q1011 RED BECMG 8000 HZ FEW002 SCT008 BKN020 GRN  
EGDR 241650Z 22016G26KT 1000 -RADZ FEW000 BKN001 OVC003 11/11 Q1011 RED 
EGDR 241550Z 22018G29KT 4000 BR FEW001 BKN002 OVC004 11/11 Q1012 AMB
EGDR 241450Z 22018G29KT 0500 FG BKN000 OVC001 12/11 Q1013 RED   
EGDR 241350Z 22016KT 0300 FG VV/// 12/12 Q1013 RED  
EGDR 241250Z 22017G27KT 0100 FG VV/// 11/11 Q1014 RERA RED NOSIG
EGDR 241150Z 21017G29KT 0150 -RADZ VV/// 11/11 Q1014 RED NOSIG  
EGDR 241050Z 21016G28KT 0150 -DZ VV/// 11/11 Q1015 RED NOSIG
EGDR 240950Z 21014G24KT 0100 -RADZ VV/// 11/11 Q1015 RED NOSIG  
EGDR 240850Z 21013KT 0100 FG VV/// 11/11 Q1015 RERA REDZ RED NOSIG  
EGDR 240750Z 21010KT 0050 -RADZ VV/// 11/10 Q1016 RED NOSIG 
EGDR 240650Z 20008KT 0200 -RADZ SCT000 SCT001 OVC002 11/10 Q1016 RED NOSIG  
EGDR 240550Z 20006KT 0100 -DZ VV/// 11/10 Q1016 RED NOSIG   
EGDR 240450Z 22009KT 0050 FG BKN000 OVC001 10/10 Q1016 RED  
EGDR 240350Z 24006KT 2000 BR FEW001 SCT002 OVC003 10/10 Q1017 REDZ AMB  
EGDR 240250Z 24007KT 1000 -DZ FEW000 BKN001 OVC002 10/10 Q1017 RED  
EGDR 240150Z 25008KT 1500 -DZ FEW000 BKN002 OVC003 10/10 Q1018 AMB  
EGDR 240050Z 24010KT 1500 -DZ FEW000 SCT002 OVC003 10/10 Q1018 AMB  
EGDR 232350Z 24010KT 0500 FG BKN000 OVC001 10/10 Q1018 REDZ RED 
EGDR 232250Z 24007KT 0800 -DZ BKN000 OVC001 10/10 Q1019 RED 
EGDR 232150Z 24010G21KT 0200 DZ VV/// 10/10 Q1019 RED   
EGDR 232050Z 24011KT 0500 DZ SCT000 OVC001 10/10 Q1019 RED  
EGDR 231950Z 24011KT 3000 -DZ FEW004 BKN006 OVC010 10/09 Q1019 YLO1